Terminal Aerodrome Forecast
Issued by NWS

Home | Current Version | Previous Version | Text Only | Print | Product List | Glossary On
Versions: 1 2 3 4 5 6 7 8 9 10 11 12 13 14
000
FTUS46 KPQR 161720
TAFONP
TAF
KONP 161720Z 1618/1718 31007KT P6SM SKC
     FM170300 10003KT P6SM SCT200
     FM170900 20003KT 4SM BR BKN005 OVC010=

USA.gov is the U.S. government's official web portal to all federal, state and local government web resources and services.